Time;durP1;ratioP1;P1;durP2;ratioP2;P2;SDS_P1;SDS_P2;PMS_P1;PMS_P2;Temp;Humidity;BMP_temperature;BMP_pressure;BME280_temperature;BME280_humidity;BME280_pressure;Samples;Min_cycle;Max_cycle;Signal;HPM_P1;HPM_P2
2020/12/15 00:01:20;;;;;;;75.00;35.30;;;2.70;99.90;;;;;;5086784;28;20180;-90
2020/12/15 00:03:49;;;;;;;77.13;33.53;;;2.70;99.90;;;;;;5087378;28;20548;-89
2020/12/15 00:06:29;;;;;;;76.93;33.17;;;2.70;99.90;;;;;;5087413;28;20164;-90
2020/12/15 00:08:57;;;;;;;74.03;32.90;;;2.70;99.90;;;;;;5086599;28;20606;-90
2020/12/15 00:11:26;;;;;;;69.28;32.70;;;2.80;99.90;;;;;;5087633;28;20263;-90
2020/12/15 00:13:57;;;;;;;87.63;38.13;;;2.80;99.90;;;;;;5087051;28;20184;-90
2020/12/15 00:16:23;;;;;;;80.97;33.60;;;2.80;99.90;;;;;;5085962;28;20184;-90
2020/12/15 00:18:51;;;;;;;80.00;32.80;;;2.70;99.90;;;;;;5086895;28;20261;-90
2020/12/15 00:21:25;;;;;;;82.88;36.55;;;2.80;99.90;;;;;;5087817;28;20184;-90
2020/12/15 00:23:54;;;;;;;69.10;33.53;;;2.90;99.90;;;;;;5086912;28;20550;-90
2020/12/15 00:26:24;;;;;;;79.18;34.28;;;2.80;99.90;;;;;;5087404;28;20169;-90
2020/12/15 00:28:50;;;;;;;75.03;32.90;;;2.60;99.90;;;;;;5087578;28;20185;-90
2020/12/15 00:31:17;;;;;;;73.60;31.48;;;2.60;99.90;;;;;;5086833;28;20267;-90
2020/12/15 00:33:46;;;;;;;71.20;30.48;;;2.70;99.90;;;;;;5085382;28;20188;-90
2020/12/15 00:36:19;;;;;;;76.72;33.90;;;2.80;99.90;;;;;;5087050;28;20723;-90
2020/12/15 00:39:03;;;;;;;64.15;30.38;;;2.70;99.90;;;;;;5086423;28;20302;-90
2020/12/15 00:41:40;;;;;;;77.30;30.75;;;2.70;99.90;;;;;;5090458;28;20173;-90
2020/12/15 00:44:06;;;;;;;80.90;32.50;;;2.70;99.90;;;;;;5090326;28;20180;-90
2020/12/15 00:46:31;;;;;;;71.40;31.37;;;2.60;99.90;;;;;;5090811;28;20179;-90
2020/12/15 00:49:00;;;;;;;70.93;27.97;;;2.70;99.90;;;;;;5088884;28;20245;-90
2020/12/15 00:51:26;;;;;;;64.82;30.75;;;2.70;99.90;;;;;;5090310;28;20241;-90
2020/12/15 00:53:54;;;;;;;66.47;27.77;;;2.70;99.90;;;;;;5090086;28;20181;-89
2020/12/15 00:56:23;;;;;;;62.90;27.50;;;2.70;99.90;;;;;;5090069;28;20229;-90
2020/12/15 00:59:00;;;;;;;75.72;32.03;;;2.70;99.90;;;;;;5090773;28;20273;-90
2020/12/15 01:01:25;;;;;;;67.47;29.67;;;2.70;99.90;;;;;;5090369;28;20168;-90
2020/12/15 01:03:57;;;;;;;67.07;29.87;;;2.70;99.90;;;;;;5090436;28;20199;-90
2020/12/15 01:06:25;;;;;;;57.90;25.85;;;2.70;99.90;;;;;;5089013;28;20620;-89
2020/12/15 01:08:56;;;;;;;67.65;29.45;;;2.60;99.90;;;;;;5089878;28;20185;-90
2020/12/15 01:11:34;;;;;;;65.60;27.65;;;2.70;99.90;;;;;;5090023;28;20234;-90
2020/12/15 01:14:02;;;;;;;66.75;28.80;;;2.70;99.90;;;;;;5091807;28;20180;-90
2020/12/15 01:16:28;;;;;;;61.33;25.77;;;2.80;99.90;;;;;;5090160;28;20185;-90
2020/12/15 01:18:59;;;;;;;67.37;28.00;;;2.80;99.90;;;;;;5091293;28;20273;-90
2020/12/15 01:21:29;;;;;;;58.58;27.25;;;2.70;99.90;;;;;;5089438;28;20168;-90
2020/12/15 01:23:55;;;;;;;58.55;25.70;;;2.70;99.90;;;;;;5089574;28;20176;-90
2020/12/15 01:26:27;;;;;;;68.82;27.95;;;2.60;99.90;;;;;;5089271;28;20176;-90
2020/12/15 01:28:54;;;;;;;70.85;28.45;;;2.70;99.90;;;;;;5089607;28;20253;-90
2020/12/15 01:31:35;;;;;;;63.00;26.85;;;2.70;99.90;;;;;;5089301;28;20705;-90
2020/12/15 01:34:03;;;;;;;57.38;27.33;;;2.70;99.90;;;;;;5089106;28;20180;-90
2020/12/15 01:36:32;;;;;;;70.30;30.33;;;2.70;99.90;;;;;;5089293;28;20195;-90
2020/12/15 01:39:07;;;;;;;61.35;27.80;;;2.80;99.90;;;;;;5089305;28;20204;-90
2020/12/15 01:41:44;;;;;;;58.08;26.83;;;2.80;99.90;;;;;;5089843;28;20194;-90
2020/12/15 01:44:10;;;;;;;63.60;27.88;;;2.90;99.90;;;;;;5089340;28;20270;-89
2020/12/15 01:46:38;;;;;;;62.70;27.57;;;2.80;99.90;;;;;;5089153;28;20766;-89
2020/12/15 01:49:13;;;;;;;63.75;27.58;;;2.80;99.90;;;;;;5089364;28;20176;-90
2020/12/15 01:51:41;;;;;;;60.47;26.17;;;2.70;99.90;;;;;;5089758;28;20298;-90
2020/12/15 01:54:10;;;;;;;66.35;27.77;;;2.70;99.90;;;;;;5088563;28;20533;-90
2020/12/15 01:56:36;;;;;;;57.30;24.30;;;2.50;99.90;;;;;;5088216;28;20223;-90
2020/12/15 01:59:03;;;;;;;61.72;28.05;;;2.50;99.90;;;;;;5088667;28;20719;-89
2020/12/15 02:01:29;;;;;;;57.22;24.88;;;2.50;99.90;;;;;;5089098;28;20267;-90
2020/12/15 02:03:55;;;;;;;53.20;24.47;;;2.60;99.90;;;;;;5090820;28;20256;-90
2020/12/15 02:06:22;;;;;;;53.33;25.23;;;2.70;99.90;;;;;;5088636;28;20413;-90
2020/12/15 02:08:48;;;;;;;58.85;26.27;;;2.60;99.90;;;;;;5088474;28;20560;-90
2020/12/15 02:11:27;;;;;;;62.25;28.73;;;2.70;99.90;;;;;;5088087;28;20602;-90
2020/12/15 02:13:53;;;;;;;62.75;24.13;;;2.70;99.90;;;;;;5088774;28;20192;-90
2020/12/15 02:16:24;;;;;;;58.70;25.20;;;2.70;99.90;;;;;;5089520;28;20199;-90
2020/12/15 02:18:52;;;;;;;65.70;26.27;;;2.70;99.90;;;;;;5088572;28;20546;-90
2020/12/15 02:21:21;;;;;;;54.05;24.25;;;2.70;99.90;;;;;;5088650;28;20180;-90
2020/12/15 02:23:46;;;;;;;52.03;23.55;;;2.70;99.90;;;;;;5089300;28;20180;-90
2020/12/15 02:26:15;;;;;;;60.10;23.20;;;2.70;99.90;;;;;;5089789;28;20640;-90
2020/12/15 02:28:44;;;;;;;54.45;24.67;;;2.60;99.90;;;;;;5087329;28;20183;-90
2020/12/15 02:31:09;;;;;;;51.30;22.90;;;2.70;99.90;;;;;;5088679;28;20188;-90
2020/12/15 02:33:35;;;;;;;51.23;23.80;;;2.70;99.90;;;;;;5088335;28;20601;-89
2020/12/15 02:36:10;;;;;;;54.33;24.10;;;2.70;99.90;;;;;;5087969;28;20176;-90
2020/12/15 02:38:35;;;;;;;54.97;23.40;;;2.80;99.90;;;;;;5088024;28;20207;-90
2020/12/15 02:41:03;;;;;;;52.33;22.13;;;2.80;99.90;;;;;;5087961;28;20241;-90
2020/12/15 02:43:36;;;;;;;53.55;23.30;;;2.70;99.90;;;;;;5088435;28;20177;-90
2020/12/15 02:46:04;;;;;;;49.60;23.63;;;2.70;99.90;;;;;;5088552;28;20185;-90
2020/12/15 02:48:32;;;;;;;56.30;26.20;;;2.70;99.90;;;;;;5088555;28;20713;-90
2020/12/15 02:51:07;;;;;;;48.33;24.05;;;2.80;99.90;;;;;;5087761;28;20548;-90
2020/12/15 02:53:35;;;;;;;59.85;25.10;;;2.70;99.90;;;;;;5089963;28;20654;-90
2020/12/15 02:56:07;;;;;;;52.30;23.58;;;2.70;99.90;;;;;;5088484;28;20313;-90
2020/12/15 02:58:35;;;;;;;53.60;23.60;;;2.70;99.90;;;;;;5089206;28;20228;-90
2020/12/15 03:01:04;;;;;;;61.05;25.20;;;2.70;99.90;;;;;;5086627;28;20175;-89
2020/12/15 03:03:29;;;;;;;59.75;27.73;;;2.60;99.90;;;;;;5087459;28;20241;-91
2020/12/15 03:05:58;;;;;;;52.10;27.33;;;2.60;99.90;;;;;;5088351;28;20747;-90
2020/12/15 03:08:29;;;;;;;58.60;27.38;;;2.50;99.90;;;;;;5087377;28;20636;-90
2020/12/15 03:10:55;;;;;;;54.67;22.75;;;2.70;99.90;;;;;;5087818;28;20180;-90
2020/12/15 03:13:20;;;;;;;53.67;22.83;;;2.60;99.90;;;;;;5088020;28;20188;-90
2020/12/15 03:15:49;;;;;;;54.30;23.40;;;2.60;99.90;;;;;;5086762;28;20189;-90
2020/12/15 03:18:14;;;;;;;53.67;23.38;;;2.60;99.90;;;;;;5087602;28;20212;-90
2020/12/15 03:21:01;;;;;;;50.83;22.97;;;2.70;99.90;;;;;;5088185;28;20179;-89
2020/12/15 03:23:27;;;;;;;46.40;19.48;;;2.70;99.90;;;;;;5087383;28;20279;-89
2020/12/15 03:26:01;;;;;;;45.10;19.00;;;2.70;99.90;;;;;;5088657;28;20255;-90
2020/12/15 03:28:30;;;;;;;43.97;18.88;;;2.70;99.90;;;;;;5087549;28;20179;-89
2020/12/15 03:30:55;;;;;;;42.65;19.05;;;2.70;99.90;;;;;;5086564;28;20191;-89
2020/12/15 03:33:24;;;;;;;47.87;20.10;;;2.60;99.90;;;;;;5085964;28;20188;-90
2020/12/15 03:36:01;;;;;;;41.97;18.50;;;2.60;99.90;;;;;;5087302;28;20202;-89
2020/12/15 03:38:30;;;;;;;45.08;20.48;;;2.60;99.90;;;;;;5086992;28;20219;-89
2020/12/15 03:40:55;;;;;;;49.35;20.90;;;2.60;99.90;;;;;;5087169;28;20179;-89
2020/12/15 03:43:24;;;;;;;37.83;18.77;;;2.50;99.90;;;;;;5087000;28;20184;-88
2020/12/15 03:45:49;;;;;;;41.13;17.40;;;2.60;99.90;;;;;;5086675;28;20283;-90
2020/12/15 03:48:21;;;;;;;44.13;17.13;;;2.60;99.90;;;;;;5086045;28;20279;-89
2020/12/15 03:50:46;;;;;;;39.40;16.67;;;2.60;99.90;;;;;;5087267;28;20561;-89
2020/12/15 03:53:13;;;;;;;34.70;16.43;;;2.70;99.90;;;;;;5087006;28;20188;-90
2020/12/15 03:55:50;;;;;;;33.90;16.08;;;2.70;99.90;;;;;;5087231;28;20219;-89
2020/12/15 03:58:16;;;;;;;31.42;15.48;;;2.70;99.90;;;;;;5087706;28;20232;-90
2020/12/15 04:00:43;;;;;;;33.45;16.05;;;2.70;99.90;;;;;;5087383;28;20652;-90
2020/12/15 04:03:09;;;;;;;34.45;16.20;;;2.70;99.90;;;;;;5086884;28;20338;-90
2020/12/15 04:05:35;;;;;;;35.55;17.77;;;2.60;99.90;;;;;;5085952;28;20172;-89
2020/12/15 04:08:01;;;;;;;28.02;15.00;;;2.60;99.90;;;;;;5087044;28;20180;-89
2020/12/15 04:10:30;;;;;;;33.20;16.30;;;2.60;99.90;;;;;;5087881;28;20180;-89
2020/12/15 04:12:56;;;;;;;30.85;13.82;;;2.60;99.90;;;;;;5086943;28;20428;-90
2020/12/15 04:15:27;;;;;;;27.67;13.20;;;2.60;99.90;;;;;;5089204;28;20180;-90
2020/12/15 04:17:53;;;;;;;29.67;14.80;;;2.60;99.90;;;;;;5092681;28;20424;-90
2020/12/15 04:20:18;;;;;;;34.10;14.00;;;2.70;99.90;;;;;;5090087;28;20524;-90
2020/12/15 04:22:47;;;;;;;32.87;14.27;;;2.60;99.90;;;;;;5090659;28;20184;-88
2020/12/15 04:25:12;;;;;;;27.98;14.00;;;2.70;99.90;;;;;;5092018;28;20180;-90
2020/12/15 04:27:41;;;;;;;28.73;13.93;;;2.70;99.90;;;;;;5090557;28;20229;-90
2020/12/15 04:30:09;;;;;;;33.22;15.93;;;2.70;99.90;;;;;;5090838;28;20176;-90
2020/12/15 04:32:38;;;;;;;39.80;16.42;;;2.70;99.90;;;;;;5090306;28;20189;-90
2020/12/15 04:35:09;;;;;;;31.13;15.63;;;2.70;99.90;;;;;;5090307;28;20203;-90
2020/12/15 04:37:38;;;;;;;37.92;17.40;;;2.70;99.90;;;;;;5089644;28;20196;-90
2020/12/15 04:40:09;;;;;;;35.15;16.20;;;2.70;99.90;;;;;;5090441;28;20200;-89
2020/12/15 04:42:44;;;;;;;37.03;17.10;;;2.60;99.90;;;;;;5090251;28;20528;-89
2020/12/15 04:45:10;;;;;;;46.10;19.15;;;2.60;99.90;;;;;;5090862;28;20176;-89
2020/12/15 04:47:48;;;;;;;43.47;19.30;;;2.60;99.90;;;;;;5090440;28;20659;-90
2020/12/15 04:50:16;;;;;;;36.78;17.60;;;2.60;99.90;;;;;;5092371;28;20212;-91
2020/12/15 04:53:11;;;;;;;45.38;19.60;;;2.50;99.90;;;;;;5090582;28;20188;-89
2020/12/15 04:55:40;;;;;;;44.47;19.40;;;2.40;99.90;;;;;;5090280;28;20251;-89
2020/12/15 04:58:06;;;;;;;54.40;20.95;;;2.40;99.90;;;;;;5090278;28;20332;-90
2020/12/15 05:00:34;;;;;;;43.08;18.83;;;2.50;99.90;;;;;;5090116;28;20646;-90
2020/12/15 05:03:00;;;;;;;47.53;21.00;;;2.50;99.90;;;;;;5090102;28;20648;-90
2020/12/15 05:05:29;;;;;;;41.65;17.85;;;2.60;99.90;;;;;;5090531;28;20169;-90
2020/12/15 05:08:00;;;;;;;46.05;18.65;;;2.60;99.90;;;;;;5089663;28;20632;-90
2020/12/15 05:10:26;;;;;;;42.92;18.83;;;2.60;99.90;;;;;;5088774;28;20689;-90
2020/12/15 05:12:54;;;;;;;38.23;17.23;;;2.50;99.90;;;;;;5089902;28;20180;-89
2020/12/15 05:15:20;;;;;;;41.40;17.83;;;2.50;99.90;;;;;;5089857;28;20211;-89
2020/12/15 05:17:49;;;;;;;41.87;19.10;;;2.50;99.90;;;;;;5089852;28;20544;-89
2020/12/15 05:20:25;;;;;;;49.78;22.50;;;2.60;99.90;;;;;;5089910;28;20196;-90
2020/12/15 05:22:53;;;;;;;58.17;26.05;;;2.50;99.90;;;;;;5090192;28;20180;-88
2020/12/15 05:25:34;;;;;;;47.17;22.35;;;2.50;99.90;;;;;;5089876;28;20249;-90
2020/12/15 05:28:19;;;;;;;40.80;19.15;;;2.60;99.90;;;;;;5089516;28;20183;-90
2020/12/15 05:30:44;;;;;;;42.78;19.92;;;2.60;99.90;;;;;;5089656;28;20160;-89
2020/12/15 05:33:17;;;;;;;40.47;19.40;;;2.60;99.90;;;;;;5090237;28;20191;-90
2020/12/15 05:35:43;;;;;;;44.13;19.60;;;2.60;99.90;;;;;;5089556;28;20627;-90
2020/12/15 05:38:09;;;;;;;43.95;19.60;;;2.50;99.90;;;;;;5089240;28;20188;-90
2020/12/15 05:40:37;;;;;;;42.60;18.20;;;2.50;99.90;;;;;;5089306;28;20179;-89
2020/12/15 05:43:04;;;;;;;43.95;20.15;;;2.70;99.90;;;;;;5088173;28;20196;-90
2020/12/15 05:45:31;;;;;;;44.72;20.95;;;2.70;99.90;;;;;;5090686;28;20644;-90
2020/12/15 05:48:10;;;;;;;42.72;19.98;;;2.60;99.90;;;;;;5089284;28;20183;-90
2020/12/15 05:50:58;;;;;;;40.83;20.00;;;2.60;99.90;;;;;;5089203;28;20180;-90
2020/12/15 05:53:23;;;;;;;46.47;20.50;;;2.60;99.90;;;;;;5090711;28;20219;-90
2020/12/15 05:55:56;;;;;;;49.80;23.90;;;2.60;99.90;;;;;;5089367;28;20204;-90
2020/12/15 05:58:24;;;;;;;43.45;21.67;;;2.60;99.90;;;;;;5089605;28;20236;-89
2020/12/15 06:00:56;;;;;;;44.42;20.10;;;2.70;99.90;;;;;;5088015;28;20263;-90
2020/12/15 06:03:27;;;;;;;39.33;18.83;;;2.60;99.90;;;;;;5089181;28;20188;-90
2020/12/15 06:05:56;;;;;;;42.30;19.33;;;2.60;99.90;;;;;;5092671;28;20939;-89
2020/12/15 06:08:23;;;;;;;50.13;20.80;;;2.60;99.90;;;;;;5106323;28;20275;-90
2020/12/15 06:10:52;;;;;;;44.72;19.60;;;2.60;99.90;;;;;;5114308;27;20644;-89
2020/12/15 06:13:18;;;;;;;38.28;18.80;;;2.70;99.90;;;;;;5092594;28;20185;-90
2020/12/15 06:15:44;;;;;;;41.10;19.80;;;2.70;99.90;;;;;;5093355;28;20536;-90
2020/12/15 06:18:11;;;;;;;37.07;17.30;;;2.70;99.90;;;;;;5090691;28;20640;-89
2020/12/15 06:20:37;;;;;;;47.40;19.77;;;2.70;99.90;;;;;;5106095;28;20184;-89
2020/12/15 06:23:16;;;;;;;47.17;18.70;;;2.60;99.90;;;;;;5088811;28;20437;-90
2020/12/15 06:25:54;;;;;;;43.00;21.40;;;2.70;99.90;;;;;;5092381;28;20408;-88
2020/12/15 06:28:22;;;;;;;51.33;22.67;;;2.70;99.90;;;;;;5088925;28;20184;-89
2020/12/15 06:30:59;;;;;;;44.92;20.48;;;2.80;99.90;;;;;;5092136;28;20184;-90
2020/12/15 06:33:35;;;;;;;46.47;21.30;;;2.80;99.90;;;;;;5091822;28;20628;-90
2020/12/15 06:36:03;;;;;;;43.85;20.35;;;2.80;99.90;;;;;;5106825;28;20425;-90
2020/12/15 06:38:40;;;;;;;50.13;23.65;;;2.80;99.90;;;;;;5090688;28;20240;-90
2020/12/15 06:41:20;;;;;;;46.08;22.00;;;2.80;99.90;;;;;;5092207;28;20207;-90
2020/12/15 06:43:45;;;;;;;40.78;19.23;;;2.70;99.90;;;;;;5091770;28;20195;-90
2020/12/15 06:46:11;;;;;;;45.27;18.50;;;2.80;99.90;;;;;;5091605;28;20172;-90
2020/12/15 06:48:42;;;;;;;39.90;20.17;;;2.70;99.90;;;;;;5091242;28;20188;-89
2020/12/15 06:51:08;;;;;;;41.05;18.63;;;2.70;99.90;;;;;;5090899;28;20395;-90
2020/12/15 06:53:37;;;;;;;49.27;21.40;;;2.70;99.90;;;;;;5092134;28;20233;-89
2020/12/15 06:56:04;;;;;;;42.58;20.40;;;2.70;99.90;;;;;;5091469;28;20603;-90
2020/12/15 06:58:30;;;;;;;48.88;20.00;;;2.60;99.90;;;;;;5090805;28;20849;-90
2020/12/15 07:00:56;;;;;;;53.30;22.10;;;2.60;99.90;;;;;;5091428;28;20180;-90
2020/12/15 07:03:54;;;;;;;51.08;24.90;;;2.60;99.90;;;;;;5091746;28;20185;-89
2020/12/15 07:06:26;;;;;;;57.67;25.80;;;2.50;99.90;;;;;;5090003;28;20192;-90
2020/12/15 07:09:10;;;;;;;50.72;26.60;;;2.60;99.90;;;;;;5091474;28;20188;-90
2020/12/15 07:11:36;;;;;;;60.17;26.52;;;2.70;99.90;;;;;;5091784;28;20181;-89
2020/12/15 07:14:11;;;;;;;56.08;27.55;;;2.60;99.90;;;;;;5091159;28;20187;-90
2020/12/15 07:16:36;;;;;;;60.83;29.23;;;2.60;99.90;;;;;;5094013;28;20184;-90
2020/12/15 07:19:02;;;;;;;51.87;26.50;;;2.70;99.90;;;;;;5096293;28;20200;-90
2020/12/15 07:21:31;;;;;;;56.60;26.30;;;2.80;99.90;;;;;;5089637;28;20398;-90
2020/12/15 07:24:00;;;;;;;54.65;22.90;;;2.70;99.90;;;;;;5084905;28;20217;-90
2020/12/15 07:26:26;;;;;;;43.58;22.27;;;2.70;99.90;;;;;;5090062;28;20185;-90
2020/12/15 07:28:52;;;;;;;43.67;22.37;;;2.70;99.90;;;;;;5092099;28;20659;-90
2020/12/15 07:31:29;;;;;;;49.38;21.48;;;2.80;99.90;;;;;;5091262;28;20291;-90
2020/12/15 07:34:12;;;;;;;50.10;24.70;;;2.80;99.90;;;;;;5091229;28;20237;-90
2020/12/15 07:36:48;;;;;;;48.45;22.70;;;2.80;99.90;;;;;;5090770;28;20184;-90
2020/12/15 07:39:20;;;;;;;45.28;20.55;;;2.80;99.90;;;;;;5112048;28;20239;-90
2020/12/15 07:42:09;;;;;;;43.63;19.50;;;2.80;99.90;;;;;;5097816;28;20185;-89
2020/12/15 07:44:34;;;;;;;43.17;18.90;;;2.90;99.90;;;;;;5067615;28;20263;-89
2020/12/15 07:47:03;;;;;;;46.63;20.70;;;2.90;99.90;;;;;;5080607;28;20176;-90
2020/12/15 07:49:35;;;;;;;50.67;20.00;;;2.90;99.90;;;;;;5094557;28;20184;-90
2020/12/15 07:52:01;;;;;;;38.17;18.30;;;2.90;99.90;;;;;;5093330;28;20188;-90
2020/12/15 07:54:29;;;;;;;46.37;20.30;;;3.00;99.90;;;;;;5090178;28;20667;-90
2020/12/15 07:57:03;;;;;;;44.80;19.38;;;3.00;99.90;;;;;;5096300;28;20186;-90
2020/12/15 07:59:33;;;;;;;37.90;17.83;;;3.00;99.90;;;;;;5091763;28;20223;-90
2020/12/15 08:02:02;;;;;;;35.85;17.75;;;3.10;99.90;;;;;;5094765;28;20199;-89
2020/12/15 08:04:38;;;;;;;35.22;17.98;;;3.00;99.90;;;;;;5101128;28;20708;-90
2020/12/15 08:07:13;;;;;;;38.38;20.05;;;2.90;99.90;;;;;;5098965;28;20681;-90
2020/12/15 08:09:39;;;;;;;35.15;18.00;;;3.00;99.90;;;;;;5091383;28;20175;-90
2020/12/15 08:12:06;;;;;;;35.63;16.80;;;3.00;99.90;;;;;;5092570;28;20636;-88
2020/12/15 08:14:32;;;;;;;34.97;18.08;;;3.00;99.90;;;;;;5110934;28;20236;-88
2020/12/15 08:17:12;;;;;;;37.95;16.52;;;2.90;99.90;;;;;;5101105;28;20233;-90
2020/12/15 08:19:38;;;;;;;37.60;20.55;;;3.10;99.90;;;;;;5091271;28;20220;-89
2020/12/15 08:22:07;;;;;;;43.50;19.35;;;3.00;99.90;;;;;;5090278;28;20698;-89
2020/12/15 08:24:38;;;;;;;38.90;19.15;;;3.00;99.90;;;;;;5090708;28;20602;-89
2020/12/15 08:27:10;;;;;;;42.47;20.67;;;3.00;99.90;;;;;;5091613;28;20184;-89
2020/12/15 08:29:36;;;;;;;47.65;21.60;;;3.10;99.90;;;;;;5108092;28;20179;-90
2020/12/15 08:32:08;;;;;;;43.20;21.00;;;3.10;99.90;;;;;;5096781;28;20175;-89
2020/12/15 08:34:36;;;;;;;40.55;19.98;;;3.00;99.90;;;;;;5090882;28;20652;-89
2020/12/15 08:37:05;;;;;;;47.22;21.42;;;3.10;99.90;;;;;;5091123;28;20188;-90
2020/12/15 08:39:40;;;;;;;48.95;22.45;;;3.10;99.90;;;;;;5092621;28;20224;-90
2020/12/15 08:42:08;;;;;;;48.95;21.98;;;3.10;99.90;;;;;;5114618;28;20183;-90
2020/12/15 08:44:37;;;;;;;45.92;24.15;;;3.20;99.90;;;;;;5105911;28;20647;-90
2020/12/15 08:47:02;;;;;;;44.75;21.42;;;3.30;99.90;;;;;;5088659;28;20768;-90
2020/12/15 08:49:31;;;;;;;46.70;21.70;;;3.30;99.90;;;;;;5103642;28;20280;-90
2020/12/15 08:52:05;;;;;;;49.15;23.77;;;3.20;99.90;;;;;;5075300;28;20235;-90
2020/12/15 08:54:43;;;;;;;44.50;23.20;;;3.20;99.90;;;;;;5090720;28;20187;-90
2020/12/15 08:57:16;;;;;;;48.67;24.17;;;3.20;99.90;;;;;;5086663;28;20659;-90
2020/12/15 08:59:43;;;;;;;45.88;22.80;;;3.20;99.90;;;;;;5094549;28;20327;-90
2020/12/15 09:02:12;;;;;;;56.58;25.73;;;3.30;99.90;;;;;;5100489;28;20179;-89
2020/12/15 09:04:39;;;;;;;82.78;39.33;;;3.30;99.90;;;;;;5107835;28;20210;-89
2020/12/15 09:07:17;;;;;;;71.65;36.17;;;3.30;99.90;;;;;;5084629;28;20189;-90
2020/12/15 09:09:45;;;;;;;59.78;30.23;;;3.30;99.90;;;;;;5115741;27;20257;-89
2020/12/15 09:12:11;;;;;;;44.95;22.92;;;3.30;99.90;;;;;;5091768;28;20641;-90
2020/12/15 09:14:38;;;;;;;46.20;23.03;;;3.30;99.90;;;;;;5075038;28;20189;-90
2020/12/15 09:17:04;;;;;;;42.10;22.73;;;3.30;99.90;;;;;;5093479;28;20431;-90
2020/12/15 09:19:42;;;;;;;39.53;20.93;;;3.40;99.90;;;;;;5093420;28;20727;-89
2020/12/15 09:22:10;;;;;;;37.70;19.38;;;3.40;99.90;;;;;;5093419;28;20735;-90
2020/12/15 09:24:51;;;;;;;32.45;17.52;;;3.50;99.90;;;;;;5086665;28;20184;-89
2020/12/15 09:27:26;;;;;;;38.40;18.25;;;3.50;99.90;;;;;;5090700;28;20211;-90
2020/12/15 09:29:51;;;;;;;32.65;17.13;;;3.60;99.90;;;;;;5093761;28;20274;-90
2020/12/15 09:32:29;;;;;;;29.50;16.30;;;3.60;99.90;;;;;;5089272;28;20296;-89
2020/12/15 09:35:01;;;;;;;29.02;16.55;;;3.60;99.90;;;;;;5093009;28;20245;-90
2020/12/15 09:37:27;;;;;;;32.00;20.02;;;3.60;99.90;;;;;;5089607;28;20721;-90
2020/12/15 09:39:59;;;;;;;28.60;16.93;;;3.70;99.90;;;;;;5090196;28;20209;-90
2020/12/15 09:42:25;;;;;;;33.33;17.02;;;3.60;99.90;;;;;;5123529;27;20214;-89
2020/12/15 09:45:02;;;;;;;25.60;14.73;;;3.60;99.90;;;;;;5091530;28;20188;-90
2020/12/15 09:47:28;;;;;;;28.70;15.98;;;3.70;99.90;;;;;;5088977;28;20176;-91
2020/12/15 09:49:53;;;;;;;31.13;19.30;;;3.70;99.90;;;;;;5094537;28;20207;-89
2020/12/15 09:52:22;;;;;;;31.23;19.97;;;3.70;99.90;;;;;;5093112;28;20195;-90
2020/12/15 09:54:47;;;;;;;22.98;15.30;;;3.80;99.90;;;;;;5074640;28;20944;-90
2020/12/15 09:57:16;;;;;;;29.27;15.70;;;3.80;99.90;;;;;;5088085;28;20211;-90
2020/12/15 09:59:41;;;;;;;24.15;14.60;;;3.70;99.90;;;;;;5091359;28;20315;-90
2020/12/15 10:02:09;;;;;;;24.57;13.90;;;3.80;99.90;;;;;;5092845;28;20614;-90
2020/12/15 10:04:35;;;;;;;28.40;18.30;;;3.80;99.90;;;;;;5092185;28;20639;-90
2020/12/15 10:07:01;;;;;;;26.60;16.93;;;3.90;99.90;;;;;;5092255;28;20242;-90
2020/12/15 10:09:30;;;;;;;25.63;17.25;;;3.90;99.90;;;;;;5092124;28;20238;-91
2020/12/15 10:11:56;;;;;;;22.23;13.45;;;3.90;99.90;;;;;;5092849;28;20184;-90
2020/12/15 10:14:24;;;;;;;25.40;16.33;;;3.80;99.90;;;;;;5092264;28;20187;-90
2020/12/15 10:16:50;;;;;;;20.63;13.93;;;3.90;99.90;;;;;;5083969;28;20193;-90
2020/12/15 10:19:18;;;;;;;25.23;15.40;;;3.90;99.90;;;;;;5080422;28;20208;-90
2020/12/15 10:21:46;;;;;;;23.85;14.45;;;3.90;99.90;;;;;;5092091;28;20216;-90
2020/12/15 10:24:12;;;;;;;28.92;17.00;;;3.90;99.90;;;;;;5092929;28;20291;-91
2020/12/15 10:26:38;;;;;;;27.10;15.87;;;3.90;99.90;;;;;;5092228;28;20267;-90
2020/12/15 10:29:15;;;;;;;21.73;14.47;;;4.00;99.90;;;;;;5092637;28;20181;-90
2020/12/15 10:31:40;;;;;;;24.13;15.20;;;4.00;99.90;;;;;;5092367;28;20271;-90
2020/12/15 10:34:06;;;;;;;24.07;13.70;;;4.00;99.70;;;;;;5089613;28;20322;-90
2020/12/15 10:36:32;;;;;;;22.43;13.80;;;4.00;99.90;;;;;;5091691;28;20200;-90
2020/12/15 10:39:00;;;;;;;19.63;13.40;;;3.90;99.70;;;;;;5091889;28;20209;-90
2020/12/15 10:41:27;;;;;;;25.75;17.13;;;3.90;99.90;;;;;;5091682;28;20176;-90
2020/12/15 10:43:58;;;;;;;24.15;15.48;;;3.90;99.90;;;;;;5092929;28;20695;-90
2020/12/15 10:46:30;;;;;;;24.83;16.17;;;4.00;99.90;;;;;;5090271;28;20188;-90
2020/12/15 10:48:56;;;;;;;25.52;14.85;;;4.00;99.90;;;;;;5091341;28;20882;-90
2020/12/15 10:51:26;;;;;;;21.30;14.20;;;4.00;99.90;;;;;;5092715;28;20189;-90
2020/12/15 10:53:51;;;;;;;24.75;14.75;;;4.00;99.90;;;;;;5093108;28;20176;-90
2020/12/15 10:56:18;;;;;;;23.40;11.97;;;4.10;99.90;;;;;;5092330;28;20562;-90
2020/12/15 10:58:43;;;;;;;23.50;14.82;;;4.00;99.90;;;;;;5091385;28;20236;-90
2020/12/15 11:01:10;;;;;;;21.23;13.20;;;4.00;99.90;;;;;;5092348;28;20191;-90
2020/12/15 11:03:36;;;;;;;21.40;11.00;;;4.00;99.90;;;;;;5092099;28;20261;-89
2020/12/15 11:06:06;;;;;;;24.13;13.40;;;4.10;99.90;;;;;;5091289;28;20230;-91
2020/12/15 11:08:32;;;;;;;22.33;13.15;;;4.00;99.90;;;;;;5091314;28;20176;-90
2020/12/15 11:10:57;;;;;;;21.47;14.63;;;4.10;99.90;;;;;;5091549;28;20534;-90
2020/12/15 11:13:26;;;;;;;27.47;16.43;;;4.10;99.90;;;;;;5090836;28;20275;-90
2020/12/15 11:15:52;;;;;;;28.88;14.90;;;4.10;99.90;;;;;;5092231;28;20204;-90
2020/12/15 11:18:20;;;;;;;24.17;14.00;;;4.20;99.90;;;;;;5091165;28;20254;-90
2020/12/15 11:20:46;;;;;;;20.40;12.32;;;4.20;99.90;;;;;;5092073;28;20517;-90
2020/12/15 11:23:12;;;;;;;20.88;12.98;;;4.20;99.90;;;;;;5096775;28;20191;-90
2020/12/15 11:25:41;;;;;;;20.67;12.80;;;4.20;99.80;;;;;;5109578;28;20180;-89
2020/12/15 11:28:12;;;;;;;22.20;13.80;;;4.20;99.90;;;;;;5091545;28;20231;-90
2020/12/15 11:30:38;;;;;;;19.33;11.68;;;4.20;99.90;;;;;;5091697;28;20183;-90
2020/12/15 11:33:06;;;;;;;28.30;17.63;;;4.20;99.90;;;;;;5092672;28;20255;-89
2020/12/15 11:35:49;;;;;;;21.48;12.75;;;4.20;99.90;;;;;;5095927;28;20176;-90
2020/12/15 11:38:27;;;;;;;22.08;13.65;;;4.20;99.70;;;;;;5099949;28;20526;-90
2020/12/15 11:40:59;;;;;;;22.52;14.05;;;4.20;99.30;;;;;;5086231;28;20204;-90
2020/12/15 11:43:27;;;;;;;23.42;15.38;;;4.10;99.20;;;;;;5101862;28;20191;-89
2020/12/15 11:45:56;;;;;;;22.00;13.50;;;4.20;99.50;;;;;;5094447;28;20643;-90
2020/12/15 11:48:25;;;;;;;23.70;14.80;;;4.30;99.70;;;;;;5099446;28;20190;-91
2020/12/15 11:50:53;;;;;;;20.95;12.38;;;4.30;99.70;;;;;;5101614;28;20184;-91
2020/12/15 11:53:22;;;;;;;24.45;13.40;;;4.30;99.80;;;;;;5079946;28;20180;-91
2020/12/15 11:55:54;;;;;;;22.40;12.98;;;4.30;99.60;;;;;;5129132;27;20191;-91
2020/12/15 11:58:19;;;;;;;20.48;12.88;;;4.30;99.90;;;;;;5096608;28;20227;-91
2020/12/15 12:00:48;;;;;;;23.50;13.37;;;4.30;99.90;;;;;;5103448;28;20575;-91
2020/12/15 12:03:13;;;;;;;23.65;15.05;;;4.30;99.70;;;;;;5100645;28;20682;-91
2020/12/15 12:05:42;;;;;;;31.33;17.13;;;4.30;99.80;;;;;;5104808;28;20179;-91
2020/12/15 12:08:11;;;;;;;24.88;17.55;;;4.30;99.50;;;;;;5099749;28;20176;-91
2020/12/15 12:10:48;;;;;;;30.08;20.50;;;4.30;99.40;;;;;;5096288;28;20746;-90
2020/12/15 12:13:14;;;;;;;31.48;19.08;;;4.30;99.50;;;;;;5088222;28;20237;-91
2020/12/15 12:15:39;;;;;;;29.23;18.33;;;4.40;99.50;;;;;;5085951;28;20547;-91
2020/12/15 12:18:11;;;;;;;28.73;17.63;;;4.30;99.30;;;;;;5104457;28;20182;-90
2020/12/15 12:20:39;;;;;;;28.75;14.80;;;4.30;99.20;;;;;;5107584;28;20190;-91
2020/12/15 12:23:05;;;;;;;27.77;16.52;;;4.30;99.10;;;;;;5095983;28;20519;-92
2020/12/15 12:25:31;;;;;;;24.90;15.70;;;4.30;99.60;;;;;;5108660;28;20207;-90
2020/12/15 12:27:57;;;;;;;26.50;15.75;;;4.30;99.20;;;;;;5087643;28;20210;-89
2020/12/15 12:30:23;;;;;;;25.67;16.67;;;4.30;98.80;;;;;;5087338;28;20205;-89
2020/12/15 12:32:51;;;;;;;29.57;19.20;;;4.30;99.10;;;;;;5087359;28;20184;-89
2020/12/15 12:35:20;;;;;;;25.80;17.10;;;4.30;99.20;;;;;;5089380;28;20271;-89
2020/12/15 12:37:49;;;;;;;26.85;14.23;;;4.40;99.40;;;;;;5091947;28;20701;-90
2020/12/15 12:40:20;;;;;;;24.70;14.73;;;4.30;99.30;;;;;;5089995;28;20212;-89
2020/12/15 12:42:50;;;;;;;21.90;13.73;;;4.30;99.40;;;;;;5089475;28;20583;-90
2020/12/15 12:45:21;;;;;;;23.45;14.00;;;4.30;99.50;;;;;;5093767;28;20707;-90
2020/12/15 12:47:47;;;;;;;25.30;16.00;;;4.30;99.30;;;;;;5095312;28;20183;-90